Time;durP1;ratioP1;P1;durP2;ratioP2;P2;SDS_P1;SDS_P2;PMS_P1;PMS_P2;Temp;Humidity;BMP_temperature;BMP_pressure;BME280_temperature;BME280_humidity;BME280_pressure;Samples;Min_cycle;Max_cycle;Signal;HPM_P1;HPM_P2
2022/04/18 00:02:21;;;;;;;19.10;8.35;;;15.00;70.50;;;;;;5053312;28;20027;-83
2022/04/18 00:04:48;;;;;;;17.60;8.95;;;14.90;70.60;;;;;;5054814;28;20124;-83
2022/04/18 00:07:13;;;;;;;17.30;8.13;;;14.90;70.60;;;;;;5045812;28;20055;-83
2022/04/18 00:09:39;;;;;;;23.77;10.27;;;14.90;70.70;;;;;;5037370;28;20501;-83
2022/04/18 00:12:06;;;;;;;18.27;9.30;;;14.90;70.50;;;;;;5046506;28;20025;-83
2022/04/18 00:14:32;;;;;;;18.35;8.70;;;14.80;71.20;;;;;;5057968;28;20025;-83
2022/04/18 00:16:58;;;;;;;14.93;7.85;;;14.90;70.70;;;;;;5056917;28;20031;-82
2022/04/18 00:19:23;;;;;;;15.98;8.55;;;14.70;71.30;;;;;;5058295;28;20499;-83
2022/04/18 00:21:50;;;;;;;14.82;8.45;;;14.70;71.40;;;;;;5049658;28;20028;-83
2022/04/18 00:24:17;;;;;;;15.05;7.90;;;14.80;71.00;;;;;;5036812;28;20128;-81
2022/04/18 00:26:44;;;;;;;15.68;7.82;;;14.70;71.20;;;;;;5044494;28;20025;-83
2022/04/18 00:29:10;;;;;;;14.90;6.38;;;14.70;71.40;;;;;;5056843;28;20487;-83
2022/04/18 00:31:36;;;;;;;12.43;7.40;;;14.70;71.20;;;;;;5049165;28;20066;-83
2022/04/18 00:34:03;;;;;;;14.63;6.82;;;14.60;71.40;;;;;;5036472;28;20025;-83
2022/04/18 00:36:29;;;;;;;11.35;6.47;;;14.50;71.50;;;;;;5036392;28;20029;-83
2022/04/18 00:38:54;;;;;;;12.45;7.10;;;14.50;71.40;;;;;;5036949;28;20017;-83
2022/04/18 00:41:23;;;;;;;9.00;5.93;;;14.50;71.60;;;;;;5037946;28;20038;-83
2022/04/18 00:43:49;;;;;;;11.38;5.78;;;14.40;71.60;;;;;;5036673;28;20022;-83
2022/04/18 00:46:17;;;;;;;10.32;5.75;;;14.30;72.20;;;;;;5036866;28;20543;-83
2022/04/18 00:48:44;;;;;;;10.15;5.82;;;14.20;72.30;;;;;;5040111;28;20028;-83
2022/04/18 00:51:15;;;;;;;9.32;6.05;;;14.20;72.50;;;;;;5036209;28;20032;-83
2022/04/18 00:53:43;;;;;;;8.75;5.47;;;14.30;71.90;;;;;;5037536;28;20025;-83
2022/04/18 00:56:14;;;;;;;8.10;5.05;;;14.30;72.00;;;;;;5036412;28;20769;-83
2022/04/18 00:58:42;;;;;;;9.48;5.65;;;14.10;72.30;;;;;;5037780;28;20025;-83
2022/04/18 01:01:09;;;;;;;9.32;4.50;;;14.10;72.70;;;;;;5055750;28;20414;-83
2022/04/18 01:03:35;;;;;;;9.43;5.10;;;14.10;72.90;;;;;;5056194;28;20021;-83
2022/04/18 01:06:01;;;;;;;8.43;4.30;;;14.10;72.50;;;;;;5038509;28;20033;-83
2022/04/18 01:08:28;;;;;;;8.98;5.07;;;14.20;72.30;;;;;;5037082;28;20544;-83
2022/04/18 01:10:55;;;;;;;11.30;5.32;;;14.30;71.70;;;;;;5037227;28;20029;-83
2022/04/18 01:13:21;;;;;;;9.98;5.20;;;14.40;71.20;;;;;;5037424;28;20036;-82
2022/04/18 01:15:53;;;;;;;8.35;4.88;;;14.40;71.00;;;;;;5035914;28;20037;-83
2022/04/18 01:18:19;;;;;;;11.13;5.30;;;14.40;71.20;;;;;;5035707;28;20061;-82
2022/04/18 01:20:45;;;;;;;9.95;6.10;;;14.30;71.60;;;;;;5037375;28;20033;-83
2022/04/18 01:23:11;;;;;;;9.93;5.22;;;14.30;71.70;;;;;;5037261;28;20022;-82
2022/04/18 01:31:05;;;;;;;10.40;5.13;;;14.30;71.70;;;;;;5037315;28;20036;-83
2022/04/18 01:33:31;;;;;;;8.68;5.13;;;14.30;71.70;;;;;;5037013;28;20488;-82
2022/04/18 01:35:57;;;;;;;11.63;5.03;;;14.30;71.50;;;;;;5042080;28;20071;-83
2022/04/18 01:38:23;;;;;;;9.55;4.85;;;14.30;71.20;;;;;;5056931;28;20021;-83
2022/04/18 01:40:49;;;;;;;12.15;5.78;;;14.20;71.40;;;;;;5056793;28;20028;-83
2022/04/18 01:43:15;;;;;;;13.70;5.07;;;14.20;71.60;;;;;;5037534;28;20112;-83
2022/04/18 01:45:40;;;;;;;9.68;4.97;;;14.00;72.20;;;;;;5036198;28;20476;-83
2022/04/18 01:48:06;;;;;;;8.32;4.63;;;13.90;72.50;;;;;;5038353;28;20033;-83
2022/04/18 01:50:32;;;;;;;8.80;4.70;;;13.90;72.40;;;;;;5035413;28;20630;-81
2022/04/18 01:52:57;;;;;;;9.02;5.20;;;13.80;72.20;;;;;;5036761;28;20033;-81
2022/04/18 01:55:26;;;;;;;7.97;4.60;;;13.90;72.00;;;;;;5035117;28;20044;-82
2022/04/18 01:57:52;;;;;;;9.38;4.38;;;14.00;71.70;;;;;;5036599;28;20116;-82
2022/04/18 02:00:17;;;;;;;9.10;4.18;;;13.80;71.90;;;;;;5050767;28;20036;-82
2022/04/18 02:02:43;;;;;;;7.45;4.63;;;13.70;72.40;;;;;;5056432;28;20025;-81
2022/04/18 02:05:09;;;;;;;8.80;4.22;;;13.60;72.60;;;;;;5055837;28;20113;-82
2022/04/18 02:07:35;;;;;;;8.95;4.95;;;13.60;72.70;;;;;;5048356;28;20065;-82
2022/04/18 02:10:02;;;;;;;9.85;5.05;;;13.50;73.10;;;;;;5036266;28;20065;-82
2022/04/18 02:12:28;;;;;;;9.27;4.65;;;13.60;72.80;;;;;;5036250;28;20041;-82
2022/04/18 02:14:54;;;;;;;8.00;4.30;;;13.50;72.80;;;;;;5036384;28;20128;-82
2022/04/18 02:17:19;;;;;;;7.03;4.18;;;13.70;72.20;;;;;;5036108;28;20021;-82
2022/04/18 02:19:46;;;;;;;7.75;4.30;;;13.60;72.00;;;;;;5036346;28;20061;-82
2022/04/18 02:22:15;;;;;;;7.10;4.18;;;13.70;71.80;;;;;;5035668;28;20029;-82
2022/04/18 02:24:41;;;;;;;9.10;4.25;;;13.60;71.90;;;;;;5036047;28;20046;-82
2022/04/18 02:27:07;;;;;;;8.00;4.10;;;13.60;71.80;;;;;;5035755;28;20037;-82
2022/04/18 02:29:33;;;;;;;8.32;4.63;;;13.60;71.70;;;;;;5035475;28;20033;-82
2022/04/18 02:34:43;;;;;;;9.25;4.60;;;13.60;71.60;;;;;;5035879;28;20037;-82
2022/04/18 02:37:09;;;;;;;6.65;4.22;;;13.60;71.30;;;;;;5035807;28;20025;-82
2022/04/18 02:39:34;;;;;;;9.98;4.72;;;13.50;71.40;;;;;;5034614;28;20037;-82
2022/04/18 02:42:00;;;;;;;8.05;4.40;;;13.50;71.60;;;;;;5033676;28;20025;-82
2022/04/18 02:44:26;;;;;;;11.05;4.75;;;13.50;71.80;;;;;;5034340;28;20037;-82
2022/04/18 02:46:55;;;;;;;8.32;3.67;;;13.50;71.40;;;;;;5037459;28;20494;-82
2022/04/18 02:49:20;;;;;;;10.10;5.30;;;13.60;71.20;;;;;;5042341;28;20037;-82
2022/04/18 02:51:46;;;;;;;8.70;5.00;;;13.60;71.20;;;;;;5034183;28;20110;-82
2022/04/18 02:54:12;;;;;;;9.73;5.43;;;13.60;71.40;;;;;;5034138;28;20048;-82
2022/04/18 02:56:37;;;;;;;8.90;5.18;;;13.60;71.70;;;;;;5035031;28;20075;-82
2022/04/18 02:59:03;;;;;;;8.38;4.60;;;13.50;72.10;;;;;;5037397;28;20108;-82
2022/04/18 03:01:29;;;;;;;10.00;4.32;;;13.50;72.60;;;;;;5054431;28;20041;-82
2022/04/18 03:03:54;;;;;;;7.43;4.22;;;13.50;72.30;;;;;;5054408;28;20028;-82
2022/04/18 03:06:20;;;;;;;11.93;5.80;;;13.50;72.30;;;;;;5037162;28;20136;-82
2022/04/18 03:08:46;;;;;;;10.27;4.65;;;13.30;72.60;;;;;;5035345;28;20468;-82
2022/04/18 03:11:11;;;;;;;10.32;4.95;;;13.40;72.70;;;;;;5035172;28;20025;-82
2022/04/18 03:13:45;;;;;;;8.40;5.13;;;13.30;72.90;;;;;;5035280;28;20032;-82
2022/04/18 03:16:12;;;;;;;7.72;4.60;;;13.40;72.70;;;;;;5033529;28;20037;-82
2022/04/18 03:18:38;;;;;;;11.52;5.63;;;13.50;72.60;;;;;;5035234;28;20396;-82
2022/04/18 03:21:04;;;;;;;8.02;4.55;;;13.50;72.20;;;;;;5035113;28;20032;-82
2022/04/18 03:23:31;;;;;;;10.55;5.30;;;13.50;72.30;;;;;;5035085;28;20040;-82
2022/04/18 03:25:59;;;;;;;8.77;4.22;;;13.50;72.20;;;;;;5033716;28;20800;-82
2022/04/18 03:28:25;;;;;;;9.05;4.65;;;13.60;72.00;;;;;;5035441;28;20022;-81
2022/04/18 03:30:54;;;;;;;8.25;4.32;;;13.60;72.00;;;;;;5035015;28;20174;-82
2022/04/18 03:33:19;;;;;;;10.07;4.65;;;13.60;72.20;;;;;;5034650;28;20036;-82
2022/04/18 03:41:14;;;;;;;8.45;4.85;;;13.60;72.00;;;;;;5037251;28;20564;-82
2022/04/18 03:43:40;;;;;;;8.65;5.07;;;13.70;71.80;;;;;;5039136;28;20084;-82
2022/04/18 03:46:06;;;;;;;8.48;4.30;;;13.60;72.10;;;;;;5037898;28;20484;-82
2022/04/18 03:48:31;;;;;;;7.32;4.07;;;13.40;72.90;;;;;;5054528;28;20025;-82
2022/04/18 03:50:57;;;;;;;9.88;3.38;;;13.40;72.90;;;;;;5040133;28;20037;-82
2022/04/18 03:53:23;;;;;;;9.43;4.07;;;13.40;72.50;;;;;;5038914;28;20037;-82
2022/04/18 03:55:48;;;;;;;4.65;2.97;;;13.40;72.30;;;;;;5038689;28;20065;-81
2022/04/18 03:58:14;;;;;;;4.18;2.55;;;13.40;72.40;;;;;;5038768;28;20559;-82
2022/04/18 04:00:42;;;;;;;7.00;2.53;;;13.30;72.60;;;;;;5053032;28;20055;-82
2022/04/18 04:03:08;;;;;;;4.40;2.10;;;13.20;73.50;;;;;;5052917;28;20518;-82
2022/04/18 04:05:34;;;;;;;4.65;2.95;;;13.20;73.30;;;;;;5038475;28;20030;-81
2022/04/18 04:08:00;;;;;;;8.13;2.83;;;13.20;73.10;;;;;;5037028;28;20404;-81
2022/04/18 04:10:26;;;;;;;4.63;2.97;;;13.20;73.10;;;;;;5038244;28;20480;-81
2022/04/18 04:12:51;;;;;;;8.07;3.50;;;13.30;72.90;;;;;;5038627;28;20025;-82
2022/04/18 04:15:17;;;;;;;7.53;3.25;;;13.40;72.40;;;;;;5037073;28;20036;-81
2022/04/18 04:17:45;;;;;;;5.35;3.20;;;13.50;72.10;;;;;;5038485;28;20033;-82
2022/04/18 04:20:11;;;;;;;9.25;4.35;;;13.60;71.90;;;;;;5038744;28;20464;-81
2022/04/18 04:22:37;;;;;;;7.80;4.13;;;13.50;72.20;;;;;;5037155;28;20450;-81
2022/04/18 04:25:03;;;;;;;7.68;3.65;;;13.60;72.00;;;;;;5038317;28;20057;-82
2022/04/18 04:27:31;;;;;;;5.97;3.65;;;13.50;72.30;;;;;;5038256;28;20018;-82
2022/04/18 04:29:57;;;;;;;4.97;3.50;;;13.50;71.80;;;;;;5037673;28;20033;-82
2022/04/18 04:32:24;;;;;;;8.60;3.58;;;13.60;71.70;;;;;;5038011;28;20044;-81
2022/04/18 04:34:50;;;;;;;6.05;3.20;;;13.60;72.20;;;;;;5038045;28;20032;-82
2022/04/18 04:37:16;;;;;;;6.68;3.70;;;13.60;72.00;;;;;;5038126;28;20033;-82
2022/04/18 04:39:42;;;;;;;6.75;3.50;;;13.60;71.80;;;;;;5037880;28;20080;-82
2022/04/18 04:42:08;;;;;;;5.90;2.95;;;13.60;71.90;;;;;;5037983;28;20040;-82
2022/04/18 04:44:33;;;;;;;6.15;3.60;;;13.60;72.20;;;;;;5037875;28;20034;-82
2022/04/18 04:46:59;;;;;;;5.18;2.65;;;13.60;71.90;;;;;;5039334;28;20152;-82
2022/04/18 04:49:25;;;;;;;8.23;3.08;;;13.50;72.40;;;;;;5049128;28;20036;-82
2022/04/18 04:51:56;;;;;;;7.15;3.50;;;13.60;72.10;;;;;;5036014;28;20034;-82
2022/04/18 04:54:21;;;;;;;6.20;2.97;;;13.50;72.30;;;;;;5037825;28;20064;-81
2022/04/18 04:56:47;;;;;;;6.38;3.20;;;13.50;72.40;;;;;;5037625;28;20022;-81
2022/04/18 04:59:12;;;;;;;7.35;3.33;;;13.50;72.70;;;;;;5055809;28;20033;-82
2022/04/18 05:01:38;;;;;;;7.07;3.10;;;13.50;72.40;;;;;;5057538;28;20021;-81
2022/04/18 05:04:04;;;;;;;8.30;3.22;;;13.30;73.00;;;;;;5044963;28;20025;-82
2022/04/18 05:06:29;;;;;;;6.60;3.40;;;13.30;73.60;;;;;;5054499;28;20078;-82
2022/04/18 05:08:55;;;;;;;6.43;2.72;;;13.30;73.50;;;;;;5037320;28;20021;-82
2022/04/18 05:11:21;;;;;;;5.72;2.97;;;13.30;73.80;;;;;;5041118;28;20048;-82
2022/04/18 05:13:47;;;;;;;7.38;3.00;;;13.20;74.20;;;;;;5041213;28;20026;-82
2022/04/18 05:16:13;;;;;;;5.28;3.05;;;13.20;74.40;;;;;;5036099;28;20032;-82
2022/04/18 05:18:39;;;;;;;4.55;2.58;;;13.10;74.90;;;;;;5037328;28;20030;-82
2022/04/18 05:21:04;;;;;;;9.52;3.58;;;13.10;74.90;;;;;;5050710;28;20032;-82
2022/04/18 05:23:30;;;;;;;8.35;4.18;;;13.20;74.70;;;;;;5056349;28;20029;-82
2022/04/18 05:25:58;;;;;;;7.13;3.65;;;13.20;74.80;;;;;;5057584;28;20025;-82
2022/04/18 05:28:24;;;;;;;8.20;3.92;;;13.20;74.50;;;;;;5057104;28;20056;-82
2022/04/18 05:30:50;;;;;;;7.40;3.50;;;13.30;74.40;;;;;;5039133;28;20030;-82
2022/04/18 05:33:15;;;;;;;6.70;3.35;;;13.20;74.80;;;;;;5035703;28;20040;-82
2022/04/18 05:35:41;;;;;;;7.38;3.72;;;13.20;75.00;;;;;;5036885;28;20640;-82
2022/04/18 05:38:07;;;;;;;8.27;3.60;;;13.30;74.60;;;;;;5051316;28;20017;-82
2022/04/18 05:40:33;;;;;;;5.93;3.58;;;13.40;74.10;;;;;;5054930;28;20037;-82
2022/04/18 05:43:02;;;;;;;8.25;4.10;;;13.30;74.40;;;;;;5048015;28;20407;-82
2022/04/18 05:45:27;;;;;;;8.52;3.92;;;13.40;74.40;;;;;;5036836;28;20071;-82
2022/04/18 05:47:53;;;;;;;7.13;3.88;;;13.30;74.50;;;;;;5047092;28;20028;-82
2022/04/18 05:50:19;;;;;;;9.38;4.00;;;13.40;74.30;;;;;;5056028;28;20028;-81
2022/04/18 05:52:47;;;;;;;8.80;4.40;;;13.50;74.40;;;;;;5055866;28;20111;-81
2022/04/18 05:55:13;;;;;;;7.68;4.10;;;13.50;74.20;;;;;;5047205;28;20510;-82
2022/04/18 05:57:38;;;;;;;9.73;4.88;;;13.50;74.10;;;;;;5034801;28;20033;-80
2022/04/18 06:00:05;;;;;;;11.27;4.97;;;13.50;74.10;;;;;;5047005;28;20017;-77
2022/04/18 06:02:31;;;;;;;7.88;4.35;;;13.60;73.60;;;;;;5053053;28;20053;-78
2022/04/18 06:04:56;;;;;;;9.60;3.92;;;13.70;73.20;;;;;;5035542;28;20033;-80
2022/04/18 06:07:22;;;;;;;9.13;4.35;;;13.70;73.00;;;;;;5040426;28;20454;-79
2022/04/18 06:09:48;;;;;;;9.63;3.85;;;13.70;73.40;;;;;;5049798;28;20029;-79
2022/04/18 06:12:18;;;;;;;10.30;4.03;;;13.70;73.70;;;;;;5049179;28;20060;-82
2022/04/18 06:14:44;;;;;;;6.70;3.83;;;13.70;73.40;;;;;;5053670;28;20029;-80
2022/04/18 06:17:09;;;;;;;7.72;3.88;;;13.70;73.80;;;;;;5035194;28;20096;-79
2022/04/18 06:19:38;;;;;;;7.80;3.95;;;13.70;73.80;;;;;;5050473;28;20029;-79
2022/04/18 06:22:04;;;;;;;10.02;3.78;;;13.70;73.70;;;;;;5039809;28;20029;-81
2022/04/18 06:24:29;;;;;;;7.72;4.43;;;13.70;73.70;;;;;;5045778;28;20443;-80
2022/04/18 06:26:55;;;;;;;11.80;4.47;;;13.70;73.10;;;;;;5047403;28;20125;-83
2022/04/18 06:29:21;;;;;;;11.00;5.38;;;13.70;73.40;;;;;;5042743;28;20029;-82
2022/04/18 06:31:46;;;;;;;9.75;4.03;;;13.70;73.00;;;;;;5047047;28;20108;-81
2022/04/18 06:34:13;;;;;;;5.72;3.70;;;13.80;73.00;;;;;;5037364;28;20472;-81
2022/04/18 06:36:39;;;;;;;9.55;4.20;;;13.80;73.00;;;;;;5044167;28;20025;-81
2022/04/18 06:39:05;;;;;;;7.32;3.90;;;13.70;73.50;;;;;;5042193;28;20025;-81
2022/04/18 06:41:30;;;;;;;8.20;4.15;;;13.80;73.40;;;;;;5046121;28;20027;-81
2022/04/18 06:43:56;;;;;;;8.07;3.30;;;13.80;73.00;;;;;;5043498;28;20499;-81
2022/04/18 06:46:22;;;;;;;7.30;3.58;;;13.80;73.20;;;;;;5044712;28;20025;-82
2022/04/18 06:48:47;;;;;;;8.40;4.00;;;13.90;72.90;;;;;;5045770;28;20025;-81
2022/04/18 06:51:13;;;;;;;7.43;3.40;;;14.00;72.60;;;;;;5045316;28;20029;-81
2022/04/18 06:53:39;;;;;;;6.30;3.47;;;14.10;72.60;;;;;;5053498;28;20029;-80
2022/04/18 06:58:54;;;;;;;8.23;3.95;;;14.10;72.50;;;;;;5063612;28;20029;-84
2022/04/18 07:01:19;;;;;;;8.98;3.50;;;14.20;72.30;;;;;;5054944;28;20036;-84
2022/04/18 07:03:45;;;;;;;6.88;3.58;;;14.20;72.40;;;;;;5056095;28;20025;-92
2022/04/18 07:06:11;;;;;;;11.10;3.33;;;14.20;72.40;;;;;;5053429;28;20557;-90
2022/04/18 07:08:37;;;;;;;8.63;3.92;;;14.20;72.40;;;;;;5037213;28;20484;-85
2022/04/18 07:19:47;;;;;;;6.22;2.85;;;14.00;73.20;;;;;;5148424;27;20442;-87
2022/04/18 07:22:13;;;;;;;6.75;3.17;;;13.90;73.30;;;;;;5131174;28;20028;-82
2022/04/18 07:24:38;;;;;;;5.00;2.97;;;14.00;73.50;;;;;;5129113;28;20096;-86
2022/04/18 07:27:04;;;;;;;5.50;3.38;;;14.30;73.00;;;;;;5131790;27;20034;-84
2022/04/18 07:29:30;;;;;;;6.03;2.78;;;14.40;72.50;;;;;;5131158;28;20028;-82
2022/04/18 07:31:56;;;;;;;6.00;2.60;;;14.50;72.10;;;;;;5131780;28;20470;-80
2022/04/18 07:34:21;;;;;;;4.97;2.75;;;14.70;71.60;;;;;;5116039;28;20094;-90
2022/04/18 07:36:48;;;;;;;5.57;2.50;;;14.80;71.00;;;;;;5112129;28;20047;-87
2022/04/18 07:39:13;;;;;;;4.15;2.83;;;14.80;70.70;;;;;;5111519;28;20028;-86
2022/04/18 07:41:39;;;;;;;6.45;2.65;;;14.90;69.80;;;;;;5129747;28;20034;-87
2022/04/18 07:44:05;;;;;;;3.22;1.80;;;15.00;69.70;;;;;;5127493;28;20031;-86
2022/04/18 07:46:31;;;;;;;2.97;1.80;;;15.10;68.90;;;;;;5124897;28;20897;-84
2022/04/18 07:48:57;;;;;;;6.05;2.28;;;15.10;68.40;;;;;;5130817;28;20023;-84
2022/04/18 07:51:32;;;;;;;6.68;2.08;;;15.20;68.00;;;;;;5131659;28;20049;-88
2022/04/18 07:53:58;;;;;;;2.88;1.85;;;15.20;67.70;;;;;;5130864;28;20032;-85
2022/04/18 07:56:24;;;;;;;4.72;2.10;;;15.30;67.90;;;;;;5130502;28;20470;-85
2022/04/18 07:58:51;;;;;;;4.22;2.05;;;15.30;68.00;;;;;;5128513;28;20967;-82
2022/04/18 08:01:18;;;;;;;5.45;2.53;;;15.30;67.80;;;;;;5129729;28;20051;-83
2022/04/18 08:03:44;;;;;;;6.70;2.05;;;15.30;67.80;;;;;;5124145;28;20035;-85
2022/04/18 08:06:10;;;;;;;7.35;2.00;;;15.20;67.30;;;;;;5128753;27;20064;-87
2022/04/18 08:08:35;;;;;;;4.95;2.30;;;15.20;67.50;;;;;;5129061;28;20031;-85
2022/04/18 08:11:01;;;;;;;6.13;2.10;;;15.30;67.60;;;;;;5128623;28;20102;-84
2022/04/18 08:13:27;;;;;;;8.80;1.98;;;15.40;67.00;;;;;;5130756;27;20050;-84
2022/04/18 08:15:53;;;;;;;7.85;1.90;;;15.30;65.90;;;;;;5131047;27;20050;-85
2022/04/18 08:18:19;;;;;;;4.15;1.90;;;15.50;66.60;;;;;;5131272;27;20047;-85
2022/04/18 08:20:45;;;;;;;4.40;1.65;;;15.40;66.50;;;;;;5124530;28;20023;-84
2022/04/18 08:23:11;;;;;;;7.07;1.65;;;15.40;66.20;;;;;;5132059;27;20619;-85
2022/04/18 08:25:37;;;;;;;7.45;2.13;;;15.40;66.30;;;;;;5125602;28;20046;-84
2022/04/18 08:28:03;;;;;;;7.43;2.00;;;15.40;65.90;;;;;;5126565;28;20035;-83
2022/04/18 08:30:28;;;;;;;4.07;1.98;;;15.30;65.80;;;;;;5119101;28;20157;-84
2022/04/18 08:32:54;;;;;;;3.30;1.50;;;15.30;65.80;;;;;;5114399;28;20056;-83
2022/04/18 08:35:20;;;;;;;6.63;1.80;;;15.50;65.80;;;;;;5110504;28;20497;-85
2022/04/18 08:37:46;;;;;;;5.10;1.88;;;15.50;65.40;;;;;;5116434;28;20792;-85
2022/04/18 08:40:13;;;;;;;5.88;2.00;;;15.90;63.20;;;;;;5107730;28;20022;-85
2022/04/18 08:42:40;;;;;;;3.95;1.67;;;17.10;61.40;;;;;;5115270;28;20023;-85
2022/04/18 08:45:09;;;;;;;7.72;1.65;;;18.10;59.30;;;;;;5114091;28;20032;-85
2022/04/18 08:53:13;;;;;;;6.15;1.73;;;18.00;57.20;;;;;;5097048;28;20070;-83
2022/04/18 08:55:43;;;;;;;7.88;1.77;;;17.70;57.70;;;;;;5109114;28;20104;-83
2022/04/18 08:58:14;;;;;;;6.13;1.95;;;17.30;58.10;;;;;;5111404;28;20028;-82
2022/04/18 09:00:40;;;;;;;9.07;2.25;;;17.20;58.90;;;;;;5113352;28;20562;-83
2022/04/18 09:03:06;;;;;;;5.18;1.63;;;17.30;59.20;;;;;;5116058;28;20028;-83
2022/04/18 09:05:36;;;;;;;5.70;1.75;;;17.30;59.10;;;;;;5117148;28;20019;-84
2022/04/18 09:08:06;;;;;;;4.68;1.95;;;17.20;59.90;;;;;;5110918;28;20038;-83
2022/04/18 09:10:32;;;;;;;5.22;1.80;;;17.20;59.50;;;;;;5107396;28;20059;-84
2022/04/18 09:13:02;;;;;;;5.57;1.80;;;17.20;59.70;;;;;;5107767;28;20031;-84
2022/04/18 09:15:34;;;;;;;5.47;1.80;;;17.30;59.70;;;;;;5103504;28;20067;-84
2022/04/18 09:18:11;;;;;;;5.72;1.70;;;17.60;58.60;;;;;;5109422;28;20043;-84
2022/04/18 09:20:58;;;;;;;5.25;1.42;;;18.80;56.50;;;;;;5113777;28;20023;-83
2022/04/18 09:23:30;;;;;;;5.72;1.45;;;19.60;53.80;;;;;;5113640;28;20106;-84
2022/04/18 09:26:01;;;;;;;4.82;1.20;;;19.30;51.30;;;;;;5108330;28;20058;-83
2022/04/18 09:28:35;;;;;;;7.30;1.67;;;18.90;53.50;;;;;;5107958;28;20089;-83
2022/04/18 09:31:09;;;;;;;4.13;1.30;;;19.30;53.10;;;;;;5106893;28;20027;-83
2022/04/18 09:33:37;;;;;;;4.65;1.20;;;19.40;51.40;;;;;;5111064;28;20030;-83
2022/04/18 09:36:08;;;;;;;3.45;1.23;;;19.70;51.70;;;;;;5107902;28;20089;-84
2022/04/18 09:38:44;;;;;;;4.35;1.17;;;21.20;49.80;;;;;;5102122;28;20031;-81
2022/04/18 09:41:12;;;;;;;4.05;1.05;;;20.70;48.30;;;;;;5112697;28;20370;-84
2022/04/18 09:43:46;;;;;;;4.40;1.20;;;20.20;49.50;;;;;;5111371;28;20026;-80
2022/04/18 09:46:13;;;;;;;4.70;1.02;;;19.80;50.30;;;;;;5113690;28;20023;-85
2022/04/18 09:48:42;;;;;;;4.25;1.05;;;19.20;49.80;;;;;;5112346;28;20030;-85
2022/04/18 09:51:13;;;;;;;3.92;1.23;;;19.30;51.50;;;;;;5113682;28;20028;-83
2022/04/18 09:53:41;;;;;;;3.05;0.85;;;19.30;50.10;;;;;;5114963;28;20031;-84
2022/04/18 09:56:07;;;;;;;4.72;0.98;;;19.40;49.90;;;;;;5113506;28;20023;-83
2022/04/18 09:58:34;;;;;;;3.88;1.35;;;19.50;49.70;;;;;;5114261;28;20045;-83
2022/04/18 10:01:03;;;;;;;3.30;1.00;;;19.50;50.10;;;;;;5114908;28;20083;-85
2022/04/18 10:03:30;;;;;;;2.88;0.60;;;19.60;48.80;;;;;;5108022;28;20024;-84
2022/04/18 10:05:55;;;;;;;4.40;0.88;;;20.30;47.50;;;;;;5109349;28;20108;-85
2022/04/18 10:08:21;;;;;;;2.60;0.73;;;20.20;46.90;;;;;;5101683;28;20580;-86
2022/04/18 10:10:48;;;;;;;2.80;0.85;;;19.90;47.20;;;;;;5103349;28;20035;-83
2022/04/18 10:13:14;;;;;;;3.50;0.82;;;20.10;46.40;;;;;;5114984;28;20490;-82
2022/04/18 10:15:40;;;;;;;4.03;0.80;;;20.30;47.10;;;;;;5115943;27;20019;-89
2022/04/18 10:18:10;;;;;;;2.85;0.60;;;20.30;47.40;;;;;;5111562;28;20486;-79
2022/04/18 10:20:41;;;;;;;3.42;0.80;;;20.30;46.80;;;;;;5094580;28;20038;-78
2022/04/18 10:23:25;;;;;;;2.17;0.63;;;20.10;46.70;;;;;;5095869;28;20020;-77
2022/04/18 10:26:22;;;;;;;4.57;0.82;;;20.80;46.00;;;;;;5095667;28;20042;-77
2022/04/18 10:28:50;;;;;;;3.72;0.60;;;20.80;43.80;;;;;;5094294;28;20496;-80
2022/04/18 10:31:22;;;;;;;1.85;0.43;;;20.80;45.30;;;;;;5096222;28;20125;-78
2022/04/18 10:33:49;;;;;;;2.58;1.20;;;20.90;44.80;;;;;;5090661;28;20352;-80
2022/04/18 10:36:25;;;;;;;2.38;0.68;;;20.90;44.40;;;;;;5100848;28;20031;-79
2022/04/18 10:38:51;;;;;;;4.78;1.20;;;20.80;44.10;;;;;;5107898;28;20047;-81
2022/04/18 10:41:43;;;;;;;1.55;0.77;;;20.70;44.90;;;;;;5105401;28;20028;-82
2022/04/18 10:44:11;;;;;;;3.03;0.93;;;20.40;45.40;;;;;;5094332;28;20024;-81
2022/04/18 10:46:37;;;;;;;2.88;0.70;;;20.40;44.30;;;;;;5096061;28;20046;-80
2022/04/18 10:49:13;;;;;;;3.63;0.70;;;20.60;45.60;;;;;;5113453;28;20039;-80
2022/04/18 10:51:40;;;;;;;7.47;1.20;;;20.80;44.80;;;;;;5098170;28;20569;-81
2022/04/18 10:54:15;;;;;;;3.22;0.70;;;20.80;44.80;;;;;;5095372;28;20024;-80
2022/04/18 10:57:02;;;;;;;3.60;0.80;;;21.00;44.30;;;;;;5103048;28;20048;-78
2022/04/18 10:59:34;;;;;;;3.40;0.50;;;21.00;43.20;;;;;;5115454;28;20076;-84
2022/04/18 11:02:02;;;;;;;1.92;0.60;;;21.00;43.60;;;;;;5110550;28;20115;-78
2022/04/18 11:04:30;;;;;;;4.13;1.02;;;20.80;43.60;;;;;;5110905;28;20036;-79
2022/04/18 11:07:03;;;;;;;2.78;0.75;;;20.70;44.20;;;;;;5095330;28;20153;-79
2022/04/18 11:09:32;;;;;;;3.00;1.27;;;20.50;44.60;;;;;;5095740;28;20107;-79
2022/04/18 11:12:05;;;;;;;1.70;0.77;;;20.60;43.90;;;;;;5107411;28;20032;-78
2022/04/18 11:15:02;;;;;;;3.40;1.00;;;20.80;43.30;;;;;;5115737;28;20032;-79
2022/04/18 11:17:40;;;;;;;1.63;0.60;;;21.00;44.80;;;;;;5114734;28;20016;-83
2022/04/18 11:20:28;;;;;;;1.92;0.80;;;21.00;44.20;;;;;;5115444;28;20023;-84
2022/04/18 11:23:19;;;;;;;2.03;0.60;;;20.70;44.30;;;;;;5106368;28;20024;-78
2022/04/18 11:25:59;;;;;;;1.58;0.60;;;20.50;44.90;;;;;;5095135;28;20062;-88
2022/04/18 11:28:41;;;;;;;2.33;0.65;;;20.30;44.50;;;;;;5107836;28;20050;-80
2022/04/18 11:31:09;;;;;;;4.95;0.80;;;20.70;43.90;;;;;;5106474;28;20518;-78
2022/04/18 11:33:42;;;;;;;2.78;0.50;;;20.90;44.00;;;;;;5110381;28;20020;-80
2022/04/18 11:36:09;;;;;;;1.67;0.60;;;21.20;42.90;;;;;;5107486;28;20031;-80
2022/04/18 11:38:35;;;;;;;2.03;0.50;;;21.30;43.70;;;;;;5110117;28;20087;-80
2022/04/18 11:41:12;;;;;;;5.60;0.80;;;21.40;43.70;;;;;;5106511;28;20470;-79
2022/04/18 11:43:38;;;;;;;4.70;0.77;;;21.10;42.20;;;;;;5108666;28;20059;-80
2022/04/18 11:46:07;;;;;;;4.63;0.82;;;20.80;43.80;;;;;;5110225;28;20031;-80
2022/04/18 11:48:34;;;;;;;2.80;0.70;;;20.60;43.60;;;;;;5108071;28;20407;-80
2022/04/18 11:51:00;;;;;;;3.38;0.68;;;20.60;43.40;;;;;;5111531;28;20024;-80
2022/04/18 11:53:31;;;;;;;2.65;0.40;;;20.50;42.90;;;;;;5108924;28;20015;-80
2022/04/18 11:55:57;;;;;;;3.35;0.70;;;20.40;43.80;;;;;;5112879;28;20031;-80
2022/04/18 11:58:23;;;;;;;2.33;0.88;;;20.70;44.20;;;;;;5112895;28;20027;-79
2022/04/18 12:09:22;;;;;;;3.95;0.55;;;21.80;40.30;;;;;;5106479;28;20039;-79
2022/04/18 12:11:48;;;;;;;2.40;0.80;;;21.80;39.00;;;;;;5109887;28;20032;-77
2022/04/18 12:14:14;;;;;;;2.55;0.73;;;21.80;39.80;;;;;;5104681;28;20024;-77
2022/04/18 12:16:41;;;;;;;4.00;0.57;;;21.80;41.40;;;;;;5106929;28;20149;-77
2022/04/18 12:19:15;;;;;;;3.47;0.65;;;21.70;39.80;;;;;;5105974;28;20128;-78
2022/04/18 12:21:42;;;;;;;2.10;0.70;;;21.70;39.80;;;;;;5105202;28;20035;-78
2022/04/18 12:24:10;;;;;;;1.98;0.65;;;21.50;41.10;;;;;;5108068;28;20020;-79
2022/04/18 12:26:38;;;;;;;2.92;0.55;;;21.50;41.40;;;;;;5107193;28;20035;-79
2022/04/18 12:29:11;;;;;;;4.90;0.82;;;21.40;40.70;;;;;;5109135;28;20089;-77
2022/04/18 12:31:41;;;;;;;1.98;0.40;;;21.20;40.70;;;;;;5105292;28;20024;-81
2022/04/18 12:34:15;;;;;;;;;;;21.10;41.10;;;;;;5113145;28;20043;-77
2022/04/18 12:36:41;;;;;;;1.15;0.50;;;21.00;41.20;;;;;;5116967;28;19957;-79
2022/04/18 12:39:06;;;;;;;1.92;0.47;;;21.00;41.50;;;;;;5102395;28;20032;-78
2022/04/18 12:41:38;;;;;;;2.00;0.50;;;21.20;42.00;;;;;;5113462;28;20027;-79
2022/04/18 12:44:13;;;;;;;2.22;0.60;;;21.60;41.80;;;;;;5117269;28;20122;-78
2022/04/18 12:46:41;;;;;;;3.63;1.13;;;21.70;42.10;;;;;;5117822;28;20031;-78
2022/04/18 12:49:10;;;;;;;2.13;0.63;;;21.70;40.70;;;;;;5111102;28;20040;-78
2022/04/18 12:51:39;;;;;;;2.63;0.60;;;21.70;41.40;;;;;;5097838;28;20589;-76
2022/04/18 12:54:16;;;;;;;2.28;0.82;;;21.60;41.10;;;;;;5096132;28;20113;-76
2022/04/18 12:56:46;;;;;;;3.75;0.50;;;21.80;40.70;;;;;;5097480;28;20120;-77
2022/04/18 12:59:14;;;;;;;1.35;0.52;;;22.10;40.30;;;;;;5101070;28;20509;-79
2022/04/18 13:01:40;;;;;;;1.63;0.43;;;22.10;39.10;;;;;;5117632;28;20055;-77
2022/04/18 13:04:23;;;;;;;1.00;0.35;;;22.10;40.00;;;;;;5116730;28;20028;-78
2022/04/18 13:06:59;;;;;;;3.75;0.70;;;22.10;39.10;;;;;;5097688;28;20028;-79
2022/04/18 13:09:25;;;;;;;2.20;0.47;;;22.00;38.20;;;;;;5097204;28;20028;-78
2022/04/18 13:12:08;;;;;;;0.95;0.43;;;21.80;39.10;;;;;;5105950;28;20071;-78
2022/04/18 13:14:55;;;;;;;2.53;0.40;;;22.00;40.40;;;;;;5105640;28;20048;-78
2022/04/18 13:17:20;;;;;;;2.15;0.45;;;22.30;40.90;;;;;;5116619;28;20233;-77
2022/04/18 13:19:46;;;;;;;1.75;0.60;;;22.30;38.80;;;;;;5114517;28;20442;-78
2022/04/18 13:22:12;;;;;;;3.25;0.75;;;22.30;39.60;;;;;;5106621;28;20482;-78
2022/04/18 13:24:37;;;;;;;1.83;0.60;;;22.10;39.70;;;;;;5110244;28;20096;-80
2022/04/18 13:27:03;;;;;;;4.68;0.60;;;22.00;39.50;;;;;;5112031;28;21067;-82
2022/04/18 13:29:29;;;;;;;1.35;0.55;;;21.80;39.30;;;;;;5113216;27;20024;-79